createdAt,value
2023-02-03T00:00:52.047Z,98678.00
2023-02-03T00:04:53.124Z,98675.00
2023-02-03T00:08:58.719Z,98669.00
2023-02-03T00:12:59.798Z,98681.00
2023-02-03T00:17:00.787Z,98684.00
2023-02-03T00:21:01.855Z,98688.00
2023-02-03T00:25:03.401Z,98656.00
2023-02-03T00:29:04.556Z,98703.00
2023-02-03T00:33:05.640Z,98693.00
2023-02-03T00:37:06.554Z,98685.00
2023-02-03T00:41:07.677Z,98684.00
2023-02-03T00:45:08.950Z,98653.00
2023-02-03T00:49:10.017Z,98634.00
2023-02-03T00:53:10.964Z,98615.00
2023-02-03T00:57:11.931Z,98617.00
2023-02-03T01:01:12.959Z,98630.00
2023-02-03T01:05:14.121Z,98654.00
2023-02-03T01:09:15.175Z,98656.00
2023-02-03T01:13:16.251Z,98641.00
2023-02-03T01:17:17.229Z,98635.00
2023-02-03T01:21:21.308Z,98624.00
2023-02-03T01:25:22.364Z,98637.00
2023-02-03T01:29:23.322Z,98625.00
2023-02-03T01:33:24.598Z,98638.00
2023-02-03T01:37:25.704Z,98640.00
2023-02-03T01:41:33.708Z,98623.00
2023-02-03T01:45:34.945Z,98619.00
2023-02-03T01:49:38.478Z,98628.00
2023-02-03T01:53:40.486Z,98618.00
2023-02-03T01:57:54.162Z,98614.00
2023-02-03T02:01:56.127Z,98622.00
2023-02-03T02:06:08.995Z,98606.00
2023-02-03T02:10:10.694Z,98630.00
2023-02-03T02:14:11.762Z,98620.00
2023-02-03T02:18:16.712Z,98624.00
2023-02-03T02:22:24.634Z,98641.00
2023-02-03T02:26:41.440Z,98631.00
2023-02-03T02:31:01.301Z,98625.00
2023-02-03T02:35:21.531Z,98637.00
2023-02-03T02:39:38.504Z,98641.00
2023-02-03T02:43:52.232Z,98649.00
2023-02-03T02:47:57.004Z,98647.00
2023-02-03T02:52:01.918Z,98656.00
2023-02-03T02:56:06.014Z,98653.00
2023-02-03T03:00:08.459Z,98642.00
2023-02-03T03:04:11.567Z,98634.00
2023-02-03T03:08:13.959Z,98651.00
2023-02-03T03:12:18.828Z,98644.00
2023-02-03T03:16:25.345Z,98647.00
2023-02-03T03:20:27.571Z,98628.00
2023-02-03T03:24:32.769Z,98611.00
2023-02-03T03:28:43.368Z,98599.00
2023-02-03T03:32:44.764Z,98589.00
2023-02-03T03:36:49.431Z,98598.00
2023-02-03T03:40:57.109Z,98607.00
2023-02-03T03:45:26.019Z,98614.00
2023-02-03T03:49:28.863Z,98611.00
2023-02-03T03:53:33.090Z,98606.00
2023-02-03T03:57:38.010Z,98573.00
2023-02-03T04:01:40.673Z,98572.00
2023-02-03T04:05:42.391Z,98591.00
2023-02-03T04:09:43.439Z,98592.00
2023-02-03T04:13:44.563Z,98617.00
2023-02-03T04:17:45.781Z,98624.00
2023-02-03T04:21:46.903Z,98607.00
2023-02-03T04:25:48.288Z,98599.00
2023-02-03T04:29:50.178Z,98627.00
2023-02-03T04:33:51.130Z,98649.00
2023-02-03T04:37:52.346Z,98653.00
2023-02-03T04:41:53.352Z,98643.00
2023-02-03T04:45:54.390Z,98636.00
2023-02-03T04:49:55.529Z,98626.00
2023-02-03T04:53:56.511Z,98617.00
2023-02-03T04:57:58.890Z,98612.00
2023-02-03T05:02:02.689Z,98617.00
2023-02-03T05:06:05.068Z,98599.00
2023-02-03T05:10:06.849Z,98580.00
2023-02-03T05:14:07.807Z,98592.00
2023-02-03T05:18:08.924Z,98576.00
2023-02-03T05:22:09.913Z,98574.00
2023-02-03T05:26:11.143Z,98570.00
2023-02-03T05:30:12.444Z,98566.00
2023-02-03T05:34:13.552Z,98568.00
2023-02-03T05:38:14.854Z,98569.00
2023-02-03T05:42:15.976Z,98572.00
2023-02-03T05:46:16.974Z,98571.00
2023-02-03T05:50:18.102Z,98566.00
2023-02-03T05:54:19.398Z,98571.00
2023-02-03T05:58:20.477Z,98571.00
2023-02-03T06:02:21.552Z,98566.00
2023-02-03T06:06:23.036Z,98581.00
2023-02-03T06:10:24.863Z,98576.00
2023-02-03T06:14:27.538Z,98580.00
2023-02-03T06:18:28.608Z,98563.00
2023-02-03T06:22:29.717Z,98560.00
2023-02-03T06:26:30.850Z,98563.00
2023-02-03T06:30:31.967Z,98553.00
2023-02-03T06:34:33.139Z,98552.00
2023-02-03T06:38:34.240Z,98571.00
2023-02-03T06:42:35.340Z,98584.00
2023-02-03T06:46:36.803Z,98579.00
2023-02-03T06:50:37.771Z,98579.00
2023-02-03T06:54:38.839Z,98570.00
2023-02-03T06:58:39.961Z,98574.00
2023-02-03T07:02:41.125Z,98578.00
2023-02-03T07:06:42.182Z,98583.00
2023-02-03T07:10:43.369Z,98583.00
2023-02-03T07:14:44.482Z,98575.00
2023-02-03T07:18:47.683Z,98560.00
2023-02-03T07:22:56.078Z,98549.00
2023-02-03T07:26:57.187Z,98567.00
2023-02-03T07:30:58.365Z,98593.00
2023-02-03T07:35:00.637Z,98575.00
2023-02-03T07:39:01.867Z,98570.00
2023-02-03T07:47:06.003Z,98601.00
2023-02-03T07:51:06.961Z,98586.00
2023-02-03T07:55:08.669Z,98594.00
2023-02-03T07:59:09.641Z,98603.00
2023-02-03T08:03:10.954Z,98604.00
2023-02-03T08:07:12.285Z,98602.00
2023-02-03T08:11:13.467Z,98594.00
2023-02-03T08:15:14.751Z,98600.00
2023-02-03T08:19:15.959Z,98592.00
2023-02-03T08:23:17.055Z,98588.00
2023-02-03T08:27:20.366Z,98566.00
2023-02-03T08:31:21.917Z,98565.00
2023-02-03T08:35:23.508Z,98562.00
2023-02-03T08:39:24.631Z,98554.00
2023-02-03T08:43:25.714Z,98567.00
2023-02-03T08:47:26.750Z,98549.00
2023-02-03T08:51:27.855Z,98538.00
2023-02-03T08:55:29.096Z,98537.00
2023-02-03T08:59:30.506Z,98538.00
2023-02-03T09:03:31.732Z,98546.00
2023-02-03T09:07:32.876Z,98544.00
2023-02-03T09:11:34.239Z,98547.00
2023-02-03T09:15:35.258Z,98570.00
2023-02-03T09:19:36.866Z,98555.00
2023-02-03T09:23:39.427Z,98548.00
2023-02-03T09:27:40.587Z,98545.00
2023-02-03T09:31:41.635Z,98556.00
2023-02-03T09:35:44.879Z,98552.00
2023-02-03T09:39:48.133Z,98548.00
2023-02-03T09:43:52.947Z,98542.00
2023-02-03T09:47:57.963Z,98549.00
2023-02-03T09:52:22.137Z,98550.00
2023-02-03T09:56:32.786Z,98549.00
2023-02-03T10:00:43.871Z,98551.00
2023-02-03T10:05:03.395Z,98547.00
2023-02-03T10:09:11.078Z,98549.00
2023-02-03T10:13:34.144Z,98555.00
2023-02-03T10:17:38.980Z,98541.00
2023-02-03T10:21:46.632Z,98542.00
2023-02-03T10:25:57.153Z,98570.00
2023-02-03T10:30:18.314Z,98577.00
2023-02-03T10:34:20.000Z,98574.00
2023-02-03T10:38:34.010Z,98579.00
2023-02-03T10:42:53.670Z,98571.00
2023-02-03T10:46:55.126Z,98574.00
2023-02-03T10:50:57.479Z,98579.00
2023-02-03T10:55:01.339Z,98553.00
2023-02-03T10:59:03.484Z,98531.00
2023-02-03T11:03:14.231Z,98547.00
2023-02-03T11:07:24.748Z,98534.00
2023-02-03T11:11:28.147Z,98523.00
2023-02-03T11:15:29.680Z,98526.00
2023-02-03T11:19:32.132Z,98530.00
2023-02-03T11:23:33.340Z,98544.00
2023-02-03T11:27:34.487Z,98553.00
2023-02-03T11:31:36.511Z,98551.00
2023-02-03T11:35:39.435Z,98563.00
2023-02-03T11:39:40.945Z,98564.00
2023-02-03T11:43:42.236Z,98549.00
2023-02-03T11:47:46.491Z,98535.00
2023-02-03T11:51:57.283Z,98516.00
2023-02-03T11:56:21.929Z,98492.00
2023-02-03T12:00:43.137Z,98496.00
2023-02-03T12:04:50.912Z,98467.00
2023-02-03T12:09:10.453Z,98464.00
2023-02-03T12:13:33.626Z,98460.00
2023-02-03T12:17:54.924Z,98459.00
2023-02-03T12:22:11.616Z,98468.00
2023-02-03T12:26:22.735Z,98473.00
2023-02-03T12:30:42.915Z,98487.00
2023-02-03T12:35:11.693Z,98506.00
2023-02-03T12:39:19.415Z,98501.00
2023-02-03T12:43:35.348Z,98377.00
2023-02-03T12:47:58.932Z,98514.00
2023-02-03T12:52:03.922Z,98491.00
2023-02-03T12:56:14.900Z,98483.00
2023-02-03T13:00:34.879Z,98472.00
2023-02-03T13:04:48.913Z,98470.00
2023-02-03T13:09:02.838Z,98464.00
2023-02-03T13:13:07.032Z,98469.00
2023-02-03T13:17:15.000Z,98463.00
2023-02-03T13:21:16.277Z,98477.00
2023-02-03T13:25:40.689Z,98487.00
2023-02-03T13:29:57.628Z,98486.00
2023-02-03T13:34:17.381Z,98488.00
2023-02-03T13:38:37.243Z,98484.00
2023-02-03T13:42:48.203Z,98483.00
2023-02-03T13:46:51.976Z,98510.00
2023-02-03T13:55:04.262Z,98460.00
2023-02-03T13:59:15.249Z,98457.00
2023-02-03T14:03:26.079Z,98488.00
2023-02-03T14:07:37.655Z,98487.00
2023-02-03T14:11:40.432Z,98489.00
2023-02-03T14:15:43.817Z,98493.00
2023-02-03T14:19:51.785Z,98505.00
2023-02-03T14:23:59.723Z,98500.00
2023-02-03T14:28:08.023Z,98508.00
2023-02-03T14:32:11.087Z,98482.00
2023-02-03T14:36:43.016Z,98476.00
2023-02-03T14:40:54.287Z,98471.00
2023-02-03T14:45:21.685Z,98471.00
2023-02-03T14:49:26.482Z,98467.00
2023-02-03T14:53:42.925Z,98484.00
2023-02-03T14:57:50.044Z,98498.00
2023-02-03T15:01:55.149Z,98509.00
2023-02-03T15:06:04.609Z,98521.00
2023-02-03T15:10:20.743Z,98514.00
2023-02-03T15:14:27.080Z,98519.00
2023-02-03T15:18:39.713Z,98509.00
2023-02-03T15:22:41.035Z,98525.00
2023-02-03T15:26:47.683Z,98539.00
2023-02-03T15:30:55.772Z,98542.00
2023-02-03T15:34:58.328Z,98536.00
2023-02-03T15:39:04.220Z,98530.00
2023-02-03T15:43:24.238Z,98530.00
2023-02-03T15:47:29.000Z,98528.00
2023-02-03T15:51:40.068Z,98513.00
2023-02-03T15:55:44.039Z,98524.00
2023-02-03T15:59:54.957Z,98542.00
2023-02-03T16:03:57.965Z,98523.00
2023-02-03T16:08:28.702Z,98519.00
2023-02-03T16:12:31.702Z,98518.00
2023-02-03T16:16:36.635Z,98534.00
2023-02-03T16:20:41.430Z,98548.00
2023-02-03T16:24:44.995Z,98543.00
2023-02-03T16:29:29.539Z,98544.00
2023-02-03T16:33:50.093Z,98557.00
2023-02-03T16:38:09.695Z,98549.00
2023-02-03T16:42:35.058Z,98566.00
2023-02-03T16:46:54.787Z,98567.00
2023-02-03T16:50:59.274Z,98557.00
2023-02-03T16:55:00.238Z,98539.00
2023-02-03T16:59:02.152Z,98562.00
2023-02-03T17:03:06.056Z,98552.00
2023-02-03T17:07:07.669Z,98569.00
2023-02-03T17:11:12.862Z,98569.00
2023-02-03T17:15:13.947Z,98585.00
2023-02-03T17:19:15.374Z,98608.00
2023-02-03T17:23:17.088Z,98613.00
2023-02-03T17:27:18.891Z,98621.00
2023-02-03T17:31:20.558Z,98641.00
2023-02-03T17:35:22.386Z,98628.00
2023-02-03T17:56:45.135Z,98625.00
2023-02-03T18:00:48.772Z,98605.00
2023-02-03T18:04:50.216Z,98597.00
2023-02-03T18:08:51.635Z,98595.00
2023-02-03T18:12:53.418Z,98598.00
2023-02-03T18:16:55.374Z,98588.00
2023-02-03T18:20:56.596Z,98592.00
2023-02-03T18:24:58.090Z,98623.00
2023-02-03T18:28:59.681Z,98615.00
2023-02-03T18:33:01.631Z,98613.00
2023-02-03T18:37:03.493Z,98635.00
2023-02-03T18:41:09.576Z,98641.00
2023-02-03T18:45:11.380Z,98639.00
2023-02-03T18:49:13.113Z,98661.00
2023-02-03T18:53:14.668Z,98668.00
2023-02-03T18:57:15.799Z,98691.00
2023-02-03T19:01:26.018Z,98692.00
2023-02-03T19:05:27.500Z,98716.00
2023-02-03T19:09:28.697Z,98714.00
2023-02-03T19:13:30.274Z,98718.00
2023-02-03T19:17:31.614Z,98716.00
2023-02-03T19:21:32.963Z,98716.00
2023-02-03T19:25:37.108Z,98712.00
2023-02-03T19:29:39.431Z,98708.00
2023-02-03T19:33:40.616Z,98708.00
2023-02-03T19:37:41.710Z,98723.00
2023-02-03T19:41:43.153Z,98719.00
2023-02-03T19:45:44.449Z,98720.00
2023-02-03T19:49:45.537Z,98734.00
2023-02-03T19:53:47.456Z,98733.00
2023-02-03T19:57:49.433Z,98748.00
2023-02-03T20:01:50.654Z,98772.00
2023-02-03T20:05:54.937Z,98781.00
2023-02-03T20:09:55.946Z,98767.00
2023-02-03T20:13:57.088Z,98783.00
2023-02-03T20:17:58.541Z,98772.00
2023-02-03T20:22:00.470Z,98779.00
2023-02-03T20:26:02.615Z,98769.00
2023-02-03T20:30:04.420Z,98792.00
2023-02-03T20:34:05.688Z,98797.00
2023-02-03T20:38:06.675Z,98786.00
2023-02-03T20:42:15.840Z,98785.00
2023-02-03T20:46:18.897Z,98780.00
2023-02-03T20:50:28.845Z,98773.00
2023-02-03T20:54:26.070Z,98772.00
2023-02-03T20:58:30.778Z,98788.00
2023-02-03T21:02:35.461Z,98778.00
2023-02-03T21:06:36.590Z,98771.00
2023-02-03T21:10:37.633Z,98780.00
2023-02-03T21:14:42.771Z,98796.00
2023-02-03T21:18:50.658Z,98794.00
2023-02-03T21:22:52.176Z,98796.00
2023-02-03T21:26:53.951Z,98803.00
2023-02-03T21:30:56.440Z,98812.00
2023-02-03T21:34:57.499Z,98815.00
2023-02-03T21:38:59.485Z,98826.00
2023-02-03T21:43:04.453Z,98830.00
2023-02-03T21:47:15.410Z,98843.00
2023-02-03T21:51:20.408Z,98853.00
2023-02-03T21:55:21.769Z,98849.00
2023-02-03T21:59:28.680Z,98850.00
2023-02-03T22:03:36.075Z,98853.00
2023-02-03T22:07:38.396Z,98854.00
2023-02-03T22:11:39.772Z,98849.00
2023-02-03T22:15:42.105Z,98866.00
2023-02-03T22:19:43.368Z,98876.00
2023-02-03T22:23:44.517Z,98874.00
2023-02-03T22:27:45.688Z,98892.00
2023-02-03T22:31:46.994Z,98905.00
2023-02-03T22:35:48.442Z,98905.00
2023-02-03T22:39:49.630Z,98914.00
2023-02-03T22:43:50.768Z,98915.00
2023-02-03T22:47:51.786Z,98938.00
2023-02-03T22:51:53.018Z,98935.00
2023-02-03T22:55:54.269Z,98952.00
2023-02-03T22:59:55.413Z,98946.00
2023-02-03T23:03:56.437Z,98947.00
2023-02-03T23:07:57.550Z,98952.00
2023-02-03T23:11:58.768Z,98954.00
2023-02-03T23:15:59.981Z,98957.00
2023-02-03T23:20:01.047Z,98957.00
2023-02-03T23:24:02.278Z,98970.00
2023-02-03T23:28:03.721Z,98969.00
2023-02-03T23:32:06.118Z,98967.00
2023-02-03T23:36:07.511Z,99001.00
2023-02-03T23:40:09.666Z,98997.00
2023-02-03T23:44:11.136Z,98983.00
2023-02-03T23:48:12.488Z,98994.00
2023-02-03T23:52:15.297Z,98997.00
2023-02-03T23:56:16.479Z,98999.00
